CheckWX is a tool to help pilots better visualize weather data.  It is not intended as a substitute for an official pre-flight weather briefing.

05:57:45 UTC

KMLJ METAR
Baldwin County Airport
Milledgeville, Georgia, USA
Current

23 mins ago

KMLJ 040535Z AUTO 00000KT 10SM CLR 11/09 A2994 RMK AO2
Observed
Apr-4 @ 05:35 UTC
Visibility
Flight Rules
VFR
Cloud Levels
  • Clear skies
Temperature
11°C / 52°F
Dewpoint
C / 48°F
Humidity
88%
Altimeter
29.94" Hg
Pressure
1013.92 hPa
Previous

43 mins ago

KMLJ 040515Z AUTO 00000KT 10SM CLR 11/09 A2995 RMK AO2
Observed
Apr-4 @ 05:15 UTC
Visibility
Flight Rules
VFR
Cloud Levels
  • Clear skies
Temperature
11°C / 52°F
Dewpoint
C / 48°F
Humidity
88%
Altimeter
29.95" Hg
Pressure
1014.22 hPa
Previous

1 hour ago

KMLJ 040455Z AUTO 00000KT 10SM CLR 12/09 A2995 RMK AO2
Observed
Apr-4 @ 04:55 UTC
Visibility
Flight Rules
VFR
Cloud Levels
  • Clear skies
Temperature
12°C / 54°F
Dewpoint
C / 48°F
Humidity
82%
Altimeter
29.95" Hg
Pressure
1014.22 hPa